Aviation Digital Data Service (ADDS)

Output produced by METARs form (0211 UTC 24 November 2017)
found at http://www.aviationweather.gov/adds/metars/
 
EFJY 240150Z AUTO 16012KT 130V210 5000 OVC004 01/00 Q1002
EFHA 240150Z AUTO 15010KT 120V190 2700 BR OVC003 01/01 Q1001
EFTP 240150Z AUTO 16011KT 3200 BR VCSH BKN003 OVC005 02/02 Q1000
EFMI 240150Z AUTO 13012KT 090V180 2300 -SHRA BR OVC003 00/00 Q1006
EFKU 240150Z AUTO 14015KT 8000 OVC005 M02/M03 Q1005
EFKI 240150Z AUTO 15009KT 100V180 9999 -SN OVC007 M02/M03 Q1003
EFLP 240150Z AUTO 14007KT 090V190 5000 OVC003 M01/M01 Q1008
EFSI 240150Z AUTO 15014KT 110V190 9999 RA BKN007 OVC012 02/02 Q0996
EFTU 240150Z AUTO 18009KT 140V220 4100 -RA BR OVC004/// 07/07 Q0999